createdAt,value
2018-05-18T00:00:01.604Z,22.27
2018-05-18T00:02:29.789Z,21.40
2018-05-18T00:04:58.061Z,15.03
2018-05-18T00:07:26.337Z,22.83
2018-05-18T00:09:54.626Z,28.57
2018-05-18T00:12:22.905Z,23.57
2018-05-18T00:14:51.194Z,22.03
2018-05-18T00:17:19.501Z,20.27
2018-05-18T00:19:47.786Z,23.70
2018-05-18T00:22:16.062Z,22.43
2018-05-18T00:24:44.346Z,19.60
2018-05-18T00:27:12.622Z,18.87
2018-05-18T00:29:40.920Z,17.40
2018-05-18T00:32:09.181Z,18.70
2018-05-18T00:34:37.490Z,15.77
2018-05-18T00:37:05.784Z,16.80
2018-05-18T00:39:34.046Z,17.27
2018-05-18T00:42:02.334Z,16.03
2018-05-18T00:44:30.606Z,18.37
2018-05-18T00:46:58.894Z,19.87
2018-05-18T00:49:27.170Z,17.97
2018-05-18T00:51:55.458Z,22.60
2018-05-18T00:54:23.730Z,15.27
2018-05-18T00:56:52.027Z,19.77
2018-05-18T00:59:20.306Z,19.03
2018-05-18T01:01:48.591Z,19.20
2018-05-18T01:04:16.880Z,27.47
2018-05-18T01:06:45.164Z,19.57
2018-05-18T01:09:13.446Z,20.23
2018-05-18T01:11:41.718Z,21.33
2018-05-18T01:14:10.033Z,18.80
2018-05-18T01:16:38.324Z,22.00
2018-05-18T01:19:06.618Z,19.57
2018-05-18T01:21:34.910Z,21.10
2018-05-18T01:24:03.192Z,22.53
2018-05-18T01:26:31.556Z,22.07
2018-05-18T01:28:59.761Z,16.33
2018-05-18T01:31:28.030Z,20.93
2018-05-18T01:33:56.321Z,21.63
2018-05-18T01:36:24.590Z,15.90
2018-05-18T01:38:52.870Z,23.03
2018-05-18T01:41:21.158Z,25.13
2018-05-18T01:43:49.454Z,18.90
2018-05-18T01:46:17.734Z,16.93
2018-05-18T01:48:46.015Z,21.40
2018-05-18T01:51:14.312Z,18.27
2018-05-18T01:53:42.626Z,19.83
2018-05-18T01:56:10.902Z,14.87
2018-05-18T01:58:39.184Z,21.23
2018-05-18T02:01:07.462Z,15.77
2018-05-18T02:03:35.746Z,24.50
2018-05-18T02:06:04.025Z,20.27
2018-05-18T02:08:32.311Z,20.33
2018-05-18T02:11:00.582Z,25.77
2018-05-18T02:13:29.136Z,17.70
2018-05-18T02:15:57.414Z,22.70
2018-05-18T02:18:25.688Z,21.40
2018-05-18T02:20:53.966Z,18.07
2018-05-18T02:23:22.242Z,19.67
2018-05-18T02:25:50.525Z,24.70
2018-05-18T02:28:18.800Z,21.20
2018-05-18T02:30:47.086Z,21.47
2018-05-18T02:33:15.355Z,20.50
2018-05-18T02:35:43.673Z,22.20
2018-05-18T02:38:11.954Z,21.53
2018-05-18T02:40:40.258Z,29.37
2018-05-18T02:43:08.548Z,23.10
2018-05-18T02:45:36.898Z,19.77
2018-05-18T02:48:05.111Z,19.80
2018-05-18T02:50:33.387Z,22.93
2018-05-18T02:53:01.670Z,20.03
2018-05-18T02:55:29.942Z,19.47
2018-05-18T02:57:58.578Z,22.27
2018-05-18T03:00:26.859Z,21.27
2018-05-18T03:02:55.154Z,20.20
2018-05-18T03:05:23.444Z,19.43
2018-05-18T03:07:51.720Z,24.20
2018-05-18T03:10:20.002Z,18.00
2018-05-18T03:12:48.282Z,16.87
2018-05-18T03:15:16.562Z,20.37
2018-05-18T03:17:44.834Z,24.00
2018-05-18T03:20:13.129Z,31.23
2018-05-18T03:22:41.406Z,18.03
2018-05-18T03:25:09.685Z,24.73
2018-05-18T03:27:37.969Z,21.33
2018-05-18T03:30:06.252Z,21.13
2018-05-18T03:32:34.529Z,27.33
2018-05-18T03:35:02.811Z,21.17
2018-05-18T03:37:31.101Z,23.50
2018-05-18T03:39:59.391Z,24.00
2018-05-18T03:42:27.682Z,33.17
2018-05-18T03:44:55.970Z,30.10
2018-05-18T03:47:24.258Z,33.37
2018-05-18T03:49:52.554Z,32.40
2018-05-18T03:52:20.830Z,37.80
2018-05-18T03:54:49.135Z,33.50
2018-05-18T03:57:17.426Z,30.57
2018-05-18T03:59:45.738Z,33.13
2018-05-18T04:02:25.768Z,37.90
2018-05-18T04:05:05.830Z,48.07
2018-05-18T04:10:36.666Z,48.70
2018-05-18T04:13:04.949Z,52.53
2018-05-18T04:15:33.261Z,54.20
2018-05-18T04:18:01.538Z,45.97
2018-05-18T04:20:30.178Z,57.47
2018-05-18T04:22:58.458Z,57.57
2018-05-18T04:25:26.738Z,56.03
2018-05-18T04:27:55.045Z,55.13
2018-05-18T04:30:23.365Z,53.73
2018-05-18T04:32:51.613Z,54.87
2018-05-18T04:35:19.950Z,57.60
2018-05-18T04:37:48.242Z,46.37
2018-05-18T04:40:16.525Z,47.63
2018-05-18T04:42:44.822Z,47.07
2018-05-18T04:45:13.110Z,51.27
2018-05-18T04:47:41.391Z,39.57
2018-05-18T04:50:09.691Z,45.70
2018-05-18T04:52:37.983Z,37.67
2018-05-18T04:55:06.283Z,38.67
2018-05-18T04:57:34.562Z,44.27
2018-05-18T05:00:02.859Z,46.60
2018-05-18T05:02:31.142Z,43.83
2018-05-18T05:04:59.446Z,41.63
2018-05-18T05:07:27.731Z,35.97
2018-05-18T05:09:56.019Z,34.70
2018-05-18T05:12:24.314Z,40.57
2018-05-18T05:14:52.596Z,43.33
2018-05-18T05:17:20.891Z,35.17
2018-05-18T05:19:49.170Z,38.70
2018-05-18T05:22:17.461Z,29.10
2018-05-18T05:24:45.750Z,32.07
2018-05-18T05:27:14.045Z,35.87
2018-05-18T05:29:42.482Z,26.87
2018-05-18T05:32:10.758Z,26.23
2018-05-18T05:34:39.054Z,35.90
2018-05-18T05:37:07.334Z,29.17
2018-05-18T05:39:35.622Z,29.80
2018-05-18T05:42:05.830Z,27.20
2018-05-18T05:44:34.136Z,25.30
2018-05-18T05:47:02.418Z,25.43
2018-05-18T05:49:30.726Z,34.07
2018-05-18T05:51:59.014Z,24.20
2018-05-18T05:54:27.294Z,24.50
2018-05-18T05:56:55.593Z,26.73
2018-05-18T05:59:23.886Z,34.90
2018-05-18T06:01:52.182Z,26.63
2018-05-18T06:04:20.466Z,28.23
2018-05-18T06:06:48.762Z,23.37
2018-05-18T06:09:17.049Z,27.17
2018-05-18T06:11:45.341Z,24.97
2018-05-18T06:14:13.624Z,26.43
2018-05-18T06:16:42.058Z,27.07
2018-05-18T06:19:10.349Z,28.60
2018-05-18T06:21:38.634Z,27.90
2018-05-18T06:24:06.931Z,34.10
2018-05-18T06:26:35.214Z,30.87
2018-05-18T06:29:03.505Z,26.93
2018-05-18T06:31:31.785Z,32.77
2018-05-18T06:34:00.086Z,31.57
2018-05-18T06:36:28.389Z,29.73
2018-05-18T06:38:56.666Z,31.13
2018-05-18T06:41:24.965Z,30.47
2018-05-18T06:43:53.245Z,31.90
2018-05-18T06:46:21.538Z,28.87
2018-05-18T06:48:49.822Z,30.70
2018-05-18T06:51:18.136Z,30.83
2018-05-18T06:53:46.415Z,32.57
2018-05-18T06:56:14.702Z,37.57
2018-05-18T06:58:43.041Z,34.70
2018-05-18T07:01:11.269Z,41.90
2018-05-18T07:03:39.578Z,34.63
2018-05-18T07:06:07.865Z,40.87
2018-05-18T07:08:36.153Z,44.77
2018-05-18T07:11:04.439Z,39.80
2018-05-18T07:13:33.065Z,36.27
2018-05-18T07:16:01.394Z,36.40
2018-05-18T07:18:29.650Z,45.40
2018-05-18T07:20:58.066Z,40.50
2018-05-18T07:23:26.433Z,42.30
2018-05-18T07:25:54.706Z,37.93
2018-05-18T07:28:22.977Z,44.50
2018-05-18T07:30:52.193Z,46.07
2018-05-18T07:33:20.473Z,46.97
2018-05-18T07:35:49.032Z,38.33
2018-05-18T07:38:17.310Z,45.57
2018-05-18T07:40:45.591Z,45.93
2018-05-18T07:43:13.883Z,59.77
2018-05-18T07:45:42.170Z,47.47
2018-05-18T07:48:10.470Z,48.07
2018-05-18T07:50:38.758Z,48.67
2018-05-18T07:53:07.054Z,58.67
2018-05-18T07:55:35.441Z,51.00
2018-05-18T07:58:03.730Z,55.73
2018-05-18T08:00:32.019Z,58.73
2018-05-18T08:03:00.306Z,53.77
2018-05-18T08:05:28.590Z,55.07
2018-05-18T08:07:57.062Z,54.60
2018-05-18T08:10:26.803Z,45.57
2018-05-18T08:12:55.106Z,48.20
2018-05-18T08:15:23.398Z,48.53
2018-05-18T08:17:51.691Z,52.30
2018-05-18T08:20:19.986Z,49.43
2018-05-18T08:22:48.265Z,51.83
2018-05-18T08:25:16.546Z,45.83
2018-05-18T08:27:44.868Z,39.90
2018-05-18T08:30:13.126Z,48.90
2018-05-18T08:32:41.426Z,43.97
2018-05-18T08:35:09.706Z,39.33
2018-05-18T08:37:38.108Z,42.93
2018-05-18T08:40:06.482Z,44.50
2018-05-18T08:42:34.760Z,43.67
2018-05-18T08:45:03.042Z,38.70
2018-05-18T08:47:31.328Z,33.57
2018-05-18T08:49:59.678Z,40.13
2018-05-18T08:52:27.894Z,38.50
2018-05-18T08:54:56.195Z,38.07
2018-05-18T08:57:24.477Z,39.23
2018-05-18T08:59:52.777Z,36.33
2018-05-18T09:02:21.074Z,33.77
2018-05-18T09:04:49.354Z,30.80
2018-05-18T09:07:17.638Z,36.13
2018-05-18T09:09:45.926Z,36.80
2018-05-18T09:12:14.214Z,44.47
2018-05-18T09:14:42.556Z,30.47
2018-05-18T09:17:10.853Z,32.23
2018-05-18T09:19:39.130Z,38.13
2018-05-18T09:22:07.450Z,38.10
2018-05-18T09:24:35.734Z,30.40
2018-05-18T09:27:04.045Z,37.70
2018-05-18T09:29:32.314Z,36.47
2018-05-18T09:32:01.626Z,31.87
2018-05-18T09:34:29.922Z,34.07
2018-05-18T09:36:58.259Z,35.70
2018-05-18T09:39:26.554Z,30.80
2018-05-18T09:41:54.834Z,32.03
2018-05-18T09:44:23.122Z,32.03
2018-05-18T09:46:51.402Z,29.60
2018-05-18T09:49:19.702Z,26.90
2018-05-18T09:51:47.991Z,34.83
2018-05-18T09:54:16.351Z,34.73
2018-05-18T09:56:44.572Z,29.37
2018-05-18T09:59:12.851Z,32.47
2018-05-18T10:01:41.137Z,31.27
2018-05-18T10:04:09.415Z,32.60
2018-05-18T10:06:37.717Z,34.37
2018-05-18T10:09:06.758Z,39.57
2018-05-18T10:11:35.358Z,37.17
2018-05-18T10:14:03.658Z,33.97
2018-05-18T10:16:32.898Z,33.37
2018-05-18T10:19:01.192Z,34.40
2018-05-18T10:21:29.470Z,27.13
2018-05-18T10:23:57.767Z,29.77
2018-05-18T10:26:26.043Z,29.53
2018-05-18T10:28:54.334Z,26.33
2018-05-18T10:31:22.614Z,33.57
2018-05-18T10:33:50.910Z,27.23
2018-05-18T10:36:19.193Z,26.93
2018-05-18T10:38:47.497Z,28.53
2018-05-18T10:41:15.800Z,27.67
2018-05-18T10:43:44.079Z,30.83
2018-05-18T10:46:19.522Z,25.47
2018-05-18T10:48:49.197Z,26.60
2018-05-18T10:51:17.537Z,25.33
2018-05-18T10:53:45.806Z,23.53
2018-05-18T10:56:14.134Z,23.83
2018-05-18T10:58:42.463Z,19.17
2018-05-18T11:01:10.782Z,20.43
2018-05-18T11:03:39.333Z,24.67
2018-05-18T11:06:07.611Z,21.83
2018-05-18T11:08:35.930Z,19.87
2018-05-18T11:11:04.212Z,19.00
2018-05-18T11:13:32.508Z,24.63
2018-05-18T11:16:00.789Z,20.83
2018-05-18T11:18:29.080Z,23.57
2018-05-18T11:20:57.357Z,22.60
2018-05-18T11:23:25.646Z,22.43
2018-05-18T11:25:53.938Z,19.50
2018-05-18T11:28:22.225Z,17.83
2018-05-18T11:30:50.523Z,20.40
2018-05-18T11:33:18.804Z,18.97
2018-05-18T11:35:47.109Z,22.80
2018-05-18T11:38:15.386Z,24.87
2018-05-18T11:40:43.682Z,20.40
2018-05-18T11:43:11.966Z,19.93
2018-05-18T11:45:40.259Z,17.63
2018-05-18T11:48:08.662Z,17.57
2018-05-18T11:50:36.830Z,25.30
2018-05-18T11:53:05.153Z,21.33
2018-05-18T11:55:33.434Z,22.63
2018-05-18T11:58:01.730Z,21.23
2018-05-18T12:00:29.994Z,21.20
2018-05-18T12:02:58.393Z,16.60
2018-05-18T12:05:26.605Z,16.57
2018-05-18T12:07:54.903Z,17.40
2018-05-18T12:10:23.186Z,15.53
2018-05-18T12:12:51.458Z,19.83
2018-05-18T12:15:19.753Z,25.77
2018-05-18T12:17:48.026Z,19.27
2018-05-18T12:20:16.365Z,22.07
2018-05-18T12:22:44.600Z,14.60
2018-05-18T12:25:12.883Z,17.83
2018-05-18T12:27:41.178Z,22.33
2018-05-18T12:30:09.449Z,16.53
2018-05-18T12:32:37.733Z,19.33
2018-05-18T12:35:06.009Z,20.17
2018-05-18T12:37:34.317Z,19.27
2018-05-18T12:40:02.598Z,18.37
2018-05-18T12:42:30.886Z,15.50
2018-05-18T12:44:59.162Z,17.90
2018-05-18T12:47:27.438Z,21.07
2018-05-18T12:49:55.729Z,19.23
2018-05-18T12:52:24.002Z,23.70
2018-05-18T12:54:52.282Z,18.40
2018-05-18T12:57:20.567Z,20.23
2018-05-18T12:59:48.897Z,15.73
2018-05-18T13:02:17.177Z,18.50
2018-05-18T13:04:45.451Z,19.43
2018-05-18T13:07:13.742Z,19.47
2018-05-18T13:09:42.189Z,18.03
2018-05-18T13:12:10.480Z,18.67
2018-05-18T13:14:38.755Z,13.43
2018-05-18T13:17:07.052Z,17.33
2018-05-18T13:19:35.329Z,21.47
2018-05-18T13:22:03.617Z,18.97
2018-05-18T13:24:31.889Z,16.60
2018-05-18T13:27:00.171Z,17.00
2018-05-18T13:29:28.455Z,18.07
2018-05-18T13:31:56.735Z,24.43
2018-05-18T13:34:25.041Z,17.00
2018-05-18T13:36:53.314Z,18.27
2018-05-18T13:39:21.630Z,17.77
2018-05-18T13:41:49.930Z,18.50
2018-05-18T13:44:18.218Z,18.97
2018-05-18T13:46:46.491Z,20.70
2018-05-18T13:49:14.778Z,22.53
2018-05-18T13:51:43.211Z,17.53
2018-05-18T13:54:11.368Z,15.97
2018-05-18T13:56:39.710Z,17.57
2018-05-18T13:59:07.999Z,16.63
2018-05-18T14:01:36.299Z,19.33
2018-05-18T14:04:04.582Z,20.33
2018-05-18T14:06:32.880Z,18.17
2018-05-18T14:09:01.157Z,21.13
2018-05-18T14:11:29.442Z,16.13
2018-05-18T14:13:57.729Z,18.63
2018-05-18T14:16:26.002Z,18.37
2018-05-18T14:18:54.294Z,17.63
2018-05-18T14:21:22.571Z,20.13
2018-05-18T14:23:50.868Z,18.47
2018-05-18T14:26:19.214Z,17.40
2018-05-18T14:28:47.477Z,16.10
2018-05-18T14:31:15.746Z,20.23
2018-05-18T14:33:44.031Z,25.03
2018-05-18T14:36:12.326Z,21.13
2018-05-18T14:38:40.604Z,17.63
2018-05-18T14:41:10.875Z,19.73
2018-05-18T14:43:39.146Z,13.67
2018-05-18T14:46:07.438Z,19.87
2018-05-18T14:48:35.734Z,20.73
2018-05-18T14:51:04.118Z,19.00
2018-05-18T14:53:32.290Z,16.00
2018-05-18T14:56:00.571Z,13.13
2018-05-18T14:58:28.894Z,16.17
2018-05-18T15:00:57.143Z,18.00
2018-05-18T15:03:25.426Z,17.83
2018-05-18T15:05:53.706Z,17.23
2018-05-18T15:08:22.002Z,20.93
2018-05-18T15:10:50.376Z,20.33
2018-05-18T15:13:18.582Z,16.97
2018-05-18T15:15:46.864Z,16.27
2018-05-18T15:18:15.152Z,21.30
2018-05-18T15:20:43.833Z,15.67
2018-05-18T15:23:12.132Z,21.10
2018-05-18T15:25:40.406Z,17.70
2018-05-18T15:28:08.716Z,18.97
2018-05-18T15:30:36.986Z,20.03
2018-05-18T15:33:05.278Z,20.73
2018-05-18T15:35:33.574Z,16.27
2018-05-18T15:38:01.862Z,18.80
2018-05-18T15:40:30.217Z,13.67
2018-05-18T15:42:58.609Z,17.97
2018-05-18T15:45:26.860Z,16.77
2018-05-18T15:47:55.261Z,20.47
2018-05-18T15:50:23.542Z,17.87
2018-05-18T15:52:51.837Z,19.60
2018-05-18T15:55:22.091Z,18.93
2018-05-18T15:57:50.538Z,17.50
2018-05-18T16:00:18.823Z,18.53
2018-05-18T16:02:47.096Z,17.03
2018-05-18T16:05:15.382Z,16.40
2018-05-18T16:07:43.654Z,18.50
2018-05-18T16:10:12.036Z,14.37
2018-05-18T16:12:40.245Z,17.93
2018-05-18T16:15:11.065Z,20.53
2018-05-18T16:17:39.346Z,18.93
2018-05-18T16:20:07.645Z,16.23
2018-05-18T16:22:35.924Z,21.83
2018-05-18T16:25:04.208Z,19.70
2018-05-18T16:27:41.481Z,17.03
2018-05-18T16:30:10.844Z,19.37
2018-05-18T16:32:39.166Z,17.50
2018-05-18T16:35:07.498Z,20.20
2018-05-18T16:37:35.790Z,22.90
2018-05-18T16:40:04.196Z,19.47
2018-05-18T16:42:32.346Z,16.77
2018-05-18T16:45:00.617Z,16.37
2018-05-18T16:47:28.894Z,19.50
2018-05-18T16:49:57.182Z,23.10
2018-05-18T16:52:25.463Z,15.37
2018-05-18T16:54:53.767Z,18.07
2018-05-18T16:57:22.054Z,21.87
2018-05-18T16:59:50.348Z,17.87
2018-05-18T17:02:18.620Z,16.60
2018-05-18T17:04:46.909Z,15.03
2018-05-18T17:07:15.300Z,17.63
2018-05-18T17:09:43.551Z,17.87
2018-05-18T17:12:11.842Z,16.70
2018-05-18T17:14:40.113Z,18.67
2018-05-18T17:17:08.514Z,17.87
2018-05-18T17:19:36.789Z,14.10
2018-05-18T17:22:05.086Z,21.30
2018-05-18T17:24:33.387Z,17.60
2018-05-18T17:27:01.674Z,16.43
2018-05-18T17:29:29.938Z,16.27
2018-05-18T17:31:58.258Z,20.10
2018-05-18T17:34:26.534Z,17.60
2018-05-18T17:36:54.982Z,18.03
2018-05-18T17:39:23.261Z,15.90
2018-05-18T17:41:51.559Z,20.17
2018-05-18T17:44:19.832Z,14.93
2018-05-18T17:46:48.130Z,19.80
2018-05-18T17:49:16.421Z,17.17
2018-05-18T17:51:44.702Z,16.70
2018-05-18T17:54:13.295Z,17.07
2018-05-18T17:56:42.520Z,15.50
2018-05-18T17:59:10.905Z,15.13
2018-05-18T18:01:40.027Z,21.60
2018-05-18T18:04:08.303Z,15.77
2018-05-18T18:06:36.590Z,15.27
2018-05-18T18:09:05.585Z,18.20
2018-05-18T18:11:33.874Z,13.43
2018-05-18T18:14:02.209Z,17.47
2018-05-18T18:16:30.437Z,15.93
2018-05-18T18:18:58.717Z,17.00
2018-05-18T18:21:27.006Z,16.80
2018-05-18T18:23:55.385Z,16.77
2018-05-18T18:26:24.522Z,16.13
2018-05-18T18:28:52.837Z,20.20
2018-05-18T18:31:21.178Z,18.20
2018-05-18T18:33:49.470Z,15.63
2018-05-18T18:36:17.788Z,17.07
2018-05-18T18:38:46.043Z,16.77
2018-05-18T18:41:14.391Z,19.37
2018-05-18T18:43:42.693Z,14.67
2018-05-18T18:46:10.966Z,17.97
2018-05-18T18:48:39.249Z,12.33
2018-05-18T18:51:07.531Z,17.70
2018-05-18T18:53:35.817Z,16.07
2018-05-18T18:56:04.215Z,13.40
2018-05-18T18:58:32.486Z,18.07
2018-05-18T19:01:00.808Z,21.50
2018-05-18T19:03:29.101Z,17.83
2018-05-18T19:05:57.402Z,12.50
2018-05-18T19:08:25.750Z,13.83
2018-05-18T19:10:53.971Z,14.73
2018-05-18T19:13:23.016Z,11.93
2018-05-18T19:15:51.293Z,14.10
2018-05-18T19:18:19.575Z,14.97
2018-05-18T19:20:47.858Z,17.13
2018-05-18T19:23:16.144Z,16.00
2018-05-18T19:25:44.417Z,13.77
2018-05-18T19:28:12.974Z,12.17
2018-05-18T19:30:41.250Z,15.70
2018-05-18T19:33:09.558Z,14.97
2018-05-18T19:35:37.846Z,13.97
2018-05-18T19:38:06.125Z,17.33
2018-05-18T19:40:34.411Z,19.20
2018-05-18T19:43:02.690Z,15.60
2018-05-18T19:45:31.018Z,13.23
2018-05-18T19:47:59.299Z,13.23
2018-05-18T19:50:27.591Z,15.83
2018-05-18T19:52:55.874Z,11.43
2018-05-18T19:55:24.154Z,14.27
2018-05-18T19:57:52.451Z,16.93
2018-05-18T20:00:20.714Z,13.73
2018-05-18T20:02:49.010Z,12.80
2018-05-18T20:05:17.293Z,14.80
2018-05-18T20:07:45.578Z,14.40
2018-05-18T20:10:13.873Z,15.00
2018-05-18T20:12:42.162Z,17.87
2018-05-18T20:15:10.448Z,23.90
2018-05-18T20:17:38.728Z,17.10
2018-05-18T20:20:07.018Z,19.17
2018-05-18T20:22:35.373Z,15.07
2018-05-18T20:25:03.777Z,13.33
2018-05-18T20:27:31.976Z,19.30
2018-05-18T20:30:00.351Z,10.23
2018-05-18T20:32:28.618Z,15.30
2018-05-18T20:34:56.898Z,13.43
2018-05-18T20:37:25.197Z,15.07
2018-05-18T20:39:53.473Z,15.23
2018-05-18T20:42:21.762Z,12.73
2018-05-18T20:44:50.098Z,14.37
2018-05-18T20:47:18.382Z,12.17
2018-05-18T20:49:46.658Z,10.87
2018-05-18T20:52:14.957Z,15.77
2018-05-18T20:54:43.223Z,12.80
2018-05-18T20:57:11.802Z,16.90
2018-05-18T20:59:40.084Z,15.60
2018-05-18T21:02:08.353Z,15.47
2018-05-18T21:04:36.682Z,19.13
2018-05-18T21:07:04.957Z,14.87
2018-05-18T21:09:33.237Z,14.93
2018-05-18T21:12:01.514Z,16.03
2018-05-18T21:14:29.801Z,16.80
2018-05-18T21:16:58.074Z,14.67
2018-05-18T21:19:26.409Z,16.60
2018-05-18T21:21:54.682Z,13.30
2018-05-18T21:24:22.966Z,13.57
2018-05-18T21:26:51.255Z,12.97
2018-05-18T21:29:19.541Z,17.80
2018-05-18T21:31:47.822Z,14.47
2018-05-18T21:34:16.165Z,11.73
2018-05-18T21:36:44.458Z,14.60
2018-05-18T21:39:12.726Z,14.07
2018-05-18T21:41:41.012Z,9.93
2018-05-18T21:44:09.311Z,15.43
2018-05-18T21:46:37.587Z,11.97
2018-05-18T21:49:05.875Z,12.23
2018-05-18T21:51:34.150Z,14.17
2018-05-18T21:54:02.444Z,11.30
2018-05-18T21:56:30.726Z,15.50
2018-05-18T21:58:59.015Z,11.60
2018-05-18T22:01:27.282Z,16.57
2018-05-18T22:03:55.908Z,11.60
2018-05-18T22:06:24.229Z,13.90
2018-05-18T22:08:52.483Z,16.80
2018-05-18T22:11:20.770Z,15.17
2018-05-18T22:13:49.053Z,15.17
2018-05-18T22:16:17.352Z,16.47
2018-05-18T22:18:45.641Z,12.20
2018-05-18T22:21:13.914Z,14.83
2018-05-18T22:23:42.218Z,15.03
2018-05-18T22:26:10.512Z,10.67
2018-05-18T22:28:38.783Z,15.63
2018-05-18T22:31:07.066Z,13.87
2018-05-18T22:33:35.353Z,13.90
2018-05-18T22:36:03.634Z,15.10
2018-05-18T22:38:31.949Z,16.00
2018-05-18T22:41:00.245Z,14.13
2018-05-18T22:43:28.625Z,14.33
2018-05-18T22:45:56.897Z,16.30
2018-05-18T22:48:25.199Z,16.13
2018-05-18T22:50:53.477Z,17.00
2018-05-18T22:53:21.762Z,17.80
2018-05-18T22:55:50.054Z,14.47
2018-05-18T22:58:18.342Z,13.93
2018-05-18T23:00:46.632Z,12.57
2018-05-18T23:03:14.922Z,15.37
2018-05-18T23:05:43.205Z,11.90
2018-05-18T23:08:11.488Z,16.17
2018-05-18T23:10:39.774Z,14.20
2018-05-18T23:13:08.049Z,14.87
2018-05-18T23:15:36.319Z,14.03
2018-05-18T23:18:04.615Z,18.17
2018-05-18T23:20:32.889Z,11.83
2018-05-18T23:23:01.179Z,12.53
2018-05-18T23:25:29.463Z,12.00
2018-05-18T23:27:57.745Z,14.00
2018-05-18T23:30:26.030Z,15.17
2018-05-18T23:32:54.386Z,14.37
2018-05-18T23:35:22.667Z,14.80
2018-05-18T23:37:50.954Z,16.00
2018-05-18T23:40:19.233Z,13.20
2018-05-18T23:42:47.518Z,13.43
2018-05-18T23:45:15.797Z,14.53
2018-05-18T23:47:44.112Z,12.70
2018-05-18T23:50:12.378Z,12.57
2018-05-18T23:52:40.657Z,13.13
2018-05-18T23:55:08.946Z,14.03
2018-05-18T23:57:37.218Z,15.33
